Flight Track Log - Related Links

Times and Time Zones

All times are in EDT time to prevent confusion due to time zone crossing. See the DCM1357 flight status page for this flight to view local times or setup timezone preferences in your user account.

Time Position Orientation Groundspeed Altitude Reporting Facility
EDT Latitude Longitude Course Direction KTS MPH feet Rate Location/Type
Sun 07:25:07 AM 40.1610 -75.5270 North 12,400  Level FlightAware ADS-B
Sun 07:25:41 AM 40.2183 -75.5633 North 387 445 13,000 1,149 Climbing New York Center
Sun 07:26:41 AM 40.2953 -75.6667 314° West 392 451 14,200 1,240 Climbing New York Center
Sun 07:27:42 AM 40.3678 -75.7806 310° West 400 460 15,500 1,261 Climbing New York Center
Sun 07:28:40 AM 40.4300 -75.8833 309° West 405 466 16,700 756 Climbing New York Center
Sun 07:29:41 AM 40.4647 -76.0414 286° West 411 473 17,000 595 Climbing New York Center
Sun 07:30:41 AM 40.4878 -76.1769 283° West 417 480 17,900 1,059 Climbing New York Center
Sun 07:31:40 AM 40.5081 -76.3258 280° West 417 480 19,100 1,261 Climbing New York Center
Sun 07:32:40 AM 40.5322 -76.4753 282° West 412 474 20,400 1,289 Climbing New York Center
Sun 07:33:41 AM 40.5583 -76.6225 283° West 412 474 21,700 1,300 Climbing New York Center
Sun 07:34:40 AM 40.5969 -76.7678 289° West 412 474 23,000 1,300 Climbing New York Center
Sun 07:35:41 AM 40.6314 -76.9075 288° West 412 474 24,300 1,328 Climbing New York Center
Sun 07:36:42 AM 40.6719 -77.0508 290° West 412 474 25,700 1,400 Climbing New York Center
Sun 07:37:41 AM 40.7100 -77.1939 289° West 412 474 27,100 1,377 Climbing New York Center
Sun 07:39:45 AM 40.7861 -77.4869 289° West 410 472 29,900 946 Climbing Cleveland Center
Sun 07:40:45 AM 40.8211 -77.6281 288° West 410 472 30,000 50 Climbing Cleveland Center
Sun 07:41:45 AM 40.8603 -77.7744 290° West 410 472 30,000  Level Cleveland Center
Sun 07:42:45 AM 40.8950 -77.9186 288° West 420 483 30,000  Level Cleveland Center
Sun 07:43:45 AM 40.9256 -78.0686 285° West 420 483 30,000  Level Cleveland Center
Sun 07:44:45 AM 40.9433 -78.2217 279° West 420 483 30,000 200 Level Cleveland Center
Sun 07:45:45 AM 40.9631 -78.3778 280° West 425 489 30,400 700 Climbing Cleveland Center
Sun 07:46:45 AM 40.9847 -78.5256 281° West 425 489 31,400 1,000 Climbing Cleveland Center
Sun 07:47:45 AM 40.9997 -78.6764 278° West 425 489 32,400 800 Climbing Cleveland Center
Sun 07:48:45 AM 41.0167 -78.8192 279° West 413 475 33,000 850 Climbing Cleveland Center
Sun 07:49:45 AM 41.0356 -78.9672 280° West 408 470 34,100 1,150 Climbing Cleveland Center
Sun 07:50:45 AM 41.0519 -79.1072 279° West 403 464 35,300 950 Climbing Cleveland Center
Sun 07:51:45 AM 41.0664 -79.2503 278° West 403 464 36,000 350 Climbing Cleveland Center
Sun 07:52:45 AM 41.0825 -79.3931 279° West 398 458 36,000  Level Cleveland Center
Sun 07:53:45 AM 41.1006 -79.5361 280° West 398 458 36,000  Level Cleveland Center
Sun 07:54:45 AM 41.1164 -79.6819 278° West 398 458 36,000  Level Cleveland Center
Sun 07:55:45 AM 41.1319 -79.8306 278° West 398 458 36,000  Level Cleveland Center
Sun 07:56:45 AM 41.1683 -79.9708 289° West 408 470 36,000  Level Cleveland Center
Sun 07:57:45 AM 41.2086 -80.1083 291° West 408 470 36,000  Level Cleveland Center
Sun 07:58:45 AM 41.2486 -80.2489 291° West 408 470 36,000  Level Cleveland Center
Sun 07:59:45 AM 41.2867 -80.4119 287° West 408 470 36,000  Level Cleveland Center
Sun 08:00:45 AM 41.3264 -80.5528 291° West 408 470 36,000  Level Cleveland Center
Sun 08:01:45 AM 41.3636 -80.6994 289° West 413 475 36,000  Level Cleveland Center
Sun 08:02:45 AM 41.4011 -80.8461 289° West 413 475 36,000  Level Cleveland Center
Sun 08:03:45 AM 41.4403 -80.9903 290° West 418 481 36,000  Level Cleveland Center
Sun 08:04:45 AM 41.4772 -81.1375 289° West 424 488 36,000  Level Cleveland Center
Sun 08:05:45 AM 41.5158 -81.2847 289° West 429 494 36,000  Level Cleveland Center
Sun 08:06:45 AM 41.5544 -81.4350 289° West 429 494 36,000  Level Cleveland Center
Sun 08:07:45 AM 41.5928 -81.5797 290° West 424 488 36,000 -450 Level Cleveland Center
Sun 08:08:45 AM 41.6289 -81.7306 288° West 424 488 35,100 -950 Descending Cleveland Center
Sun 08:09:45 AM 41.6669 -81.8839 288° West 429 494 34,100 -1,000 Descending Cleveland Center
Sun 08:10:45 AM 41.7069 -82.0378 289° West 435 501 33,100 -950 Descending Cleveland Center
Sun 08:11:45 AM 41.7422 -82.1944 287° West 441 507 32,200 -1,200 Descending Cleveland Center
Sun 08:12:45 AM 41.7817 -82.3569 288° West 446 513 30,700 -1,400 Descending Cleveland Center
Sun 08:13:45 AM 41.8206 -82.5169 288° West 446 513 29,400 -1,250 Descending Cleveland Center
Sun 08:14:45 AM 41.8617 -82.6769 289° West 446 513 28,200 -1,150 Descending Cleveland Center
Sun 08:15:45 AM 41.9003 -82.8428 287° West 451 519 27,100 -1,100 Descending Cleveland Center
Sun 08:16:45 AM 41.9406 -83.0061 288° West 458 527 26,000 -1,100 Descending Cleveland Center
Sun 08:17:45 AM 41.9789 -83.1669 288° West 463 533 24,900 -1,050 Descending Cleveland Center
Sun 08:18:45 AM 42.0128 -83.3164 287° West 463 533 23,900 -1,100 Descending Cleveland Center
Sun 08:19:45 AM 42.0464 -83.4744 286° West 442 509 22,700 -1,200 Descending Cleveland Center
Sun 08:20:45 AM 42.0753 -83.6492 283° West 434 499 21,500 -1,150 Descending Cleveland Center
Sun 08:21:45 AM 42.1000 -83.8128 282° West 439 505 20,400 -1,150 Descending Cleveland Center
Sun 08:22:45 AM 42.1242 -83.9847 281° West 453 521 19,200 -1,400 Descending Cleveland Center
Sun 08:23:45 AM 42.1503 -84.1544 282° West 459 528 17,600 -1,500 Descending Cleveland Center
Sun 08:24:45 AM 42.1728 -84.3042 282° West 464 534 16,200 -1,750 Descending Cleveland Center
Sun 08:25:45 AM 42.1964 -84.4736 281° West 464 534 14,100 -2,350 Descending Cleveland Center
Sun 08:26:45 AM 42.2200 -84.6350 281° West 459 528 11,500 -1,700 Descending Cleveland Center
Sun 08:27:45 AM 42.2572 -84.7581 292° West 394 453 10,700 -1,550 Descending Cleveland Center
Sun 08:28:45 AM 42.2847 -84.8611 290° West 346 398 8,400 -2,450 Descending Cleveland Center
Sun 08:29:45 AM 42.2972 -84.9714 279° West 308 354 5,800 -2,600 Descending Cleveland Center
Sun 08:30:45 AM 42.3056 -85.0814 276° West 295 339 3,200 -1,450 Descending Cleveland Center
Sun 08:31:45 AM 42.3186 -85.1722 281° West 280 322 2,900 -750 Descending Cleveland Center
Sun 08:32:45 AM 42.3308 -85.2267 287° West 213 245 1,700 -1,200 Descending Cleveland Center

Login

Don't have an account? Register now (free) for customized features, flight alerts, and more!